sensor_id;sensor_type;location;lat;lon;timestamp;pressure;altitude;pressure_sealevel;temperature;humidity
43436;BME280;36399;51.444;-2.018;2022-08-05T00:01:47;101016.97;;;13.03;100.00
43436;BME280;36399;51.444;-2.018;2022-08-05T00:04:13;101001.16;;;13.03;100.00
43436;BME280;36399;51.444;-2.018;2022-08-05T00:06:39;101006.50;;;13.09;100.00
43436;BME280;36399;51.444;-2.018;2022-08-05T00:09:04;101003.81;;;13.05;100.00
43436;BME280;36399;51.444;-2.018;2022-08-05T00:11:33;101009.97;;;13.05;100.00
43436;BME280;36399;51.444;-2.018;2022-08-05T00:14:00;101007.31;;;13.04;100.00
43436;BME280;36399;51.444;-2.018;2022-08-05T00:16:26;101009.97;;;13.07;100.00
43436;BME280;36399;51.444;-2.018;2022-08-05T00:18:52;101012.59;;;13.04;100.00
43436;BME280;36399;51.444;-2.018;2022-08-05T00:21:18;101013.53;;;13.10;100.00
43436;BME280;36399;51.444;-2.018;2022-08-05T00:23:45;101020.47;;;13.02;100.00
43436;BME280;36399;51.444;-2.018;2022-08-05T00:26:11;101016.13;;;13.06;100.00
43436;BME280;36399;51.444;-2.018;2022-08-05T00:28:37;101012.59;;;13.04;100.00
43436;BME280;36399;51.444;-2.018;2022-08-05T00:31:06;101012.63;;;13.07;100.00
43436;BME280;36399;51.444;-2.018;2022-08-05T00:33:35;101015.34;;;13.14;100.00
43436;BME280;36399;51.444;-2.018;2022-08-05T00:36:02;101017.97;;;13.14;100.00
43436;BME280;36399;51.444;-2.018;2022-08-05T00:38:28;101013.56;;;13.13;100.00
43436;BME280;36399;51.444;-2.018;2022-08-05T00:40:55;101021.44;;;13.12;100.00
43436;BME280;36399;51.444;-2.018;2022-08-05T00:43:22;101012.72;;;13.16;100.00
43436;BME280;36399;51.444;-2.018;2022-08-05T00:45:51;101003.06;;;13.16;100.00
43436;BME280;36399;51.444;-2.018;2022-08-05T00:48:19;100999.69;;;13.26;100.00
43436;BME280;36399;51.444;-2.018;2022-08-05T00:50:48;100993.56;;;13.31;100.00
43436;BME280;36399;51.444;-2.018;2022-08-05T00:53:16;100996.22;;;13.34;100.00
43436;BME280;36399;51.444;-2.018;2022-08-05T00:55:43;100990.91;;;13.27;100.00
43436;BME280;36399;51.444;-2.018;2022-08-05T00:58:10;100993.53;;;13.29;100.00
43436;BME280;36399;51.444;-2.018;2022-08-05T01:00:42;100994.44;;;13.30;100.00
43436;BME280;36399;51.444;-2.018;2022-08-05T01:03:11;100994.38;;;13.23;100.00
43436;BME280;36399;51.444;-2.018;2022-08-05T01:05:37;100997.91;;;13.25;100.00
43436;BME280;36399;51.444;-2.018;2022-08-05T01:08:03;101003.16;;;13.24;100.00
43436;BME280;36399;51.444;-2.018;2022-08-05T01:10:35;100996.19;;;13.31;100.00
43436;BME280;36399;51.444;-2.018;2022-08-05T01:13:14;100994.41;;;13.26;100.00
43436;BME280;36399;51.444;-2.018;2022-08-05T01:15:57;100989.88;;;13.16;100.00
43436;BME280;36399;51.444;-2.018;2022-08-05T01:18:27;100989.81;;;13.12;100.00
43436;BME280;36399;51.444;-2.018;2022-08-05T01:21:11;100993.34;;;13.14;100.00
43436;BME280;36399;51.444;-2.018;2022-08-05T01:26:38;100988.91;;;13.08;100.00
43436;BME280;36399;51.444;-2.018;2022-08-05T01:29:16;100990.63;;;13.06;100.00
43436;BME280;36399;51.444;-2.018;2022-08-05T01:31:50;100987.97;;;13.02;100.00
43436;BME280;36399;51.444;-2.018;2022-08-05T01:34:24;101001.03;;;12.94;100.00
43436;BME280;36399;51.444;-2.018;2022-08-05T01:36:58;100995.72;;;12.91;100.00
43436;BME280;36399;51.444;-2.018;2022-08-05T01:39:28;100995.59;;;12.80;100.00
43436;BME280;36399;51.444;-2.018;2022-08-05T01:41:57;100996.41;;;12.75;100.00
43436;BME280;36399;51.444;-2.018;2022-08-05T01:44:25;100999.00;;;12.72;100.00
43436;BME280;36399;51.444;-2.018;2022-08-05T01:46:52;100996.31;;;12.69;100.00
43436;BME280;36399;51.444;-2.018;2022-08-05T01:49:21;101006.06;;;12.76;100.00
43436;BME280;36399;51.444;-2.018;2022-08-05T01:51:49;100999.00;;;12.73;100.00
43436;BME280;36399;51.444;-2.018;2022-08-05T01:54:18;101001.56;;;12.66;100.00
43436;BME280;36399;51.444;-2.018;2022-08-05T01:56:46;100998.06;;;12.68;100.00
43436;BME280;36399;51.444;-2.018;2022-08-05T01:59:17;101007.69;;;12.64;100.00
43436;BME280;36399;51.444;-2.018;2022-08-05T02:01:47;101001.53;;;12.62;100.00
43436;BME280;36399;51.444;-2.018;2022-08-05T02:04:16;101001.53;;;12.62;100.00
43436;BME280;36399;51.444;-2.018;2022-08-05T02:06:44;101004.09;;;12.59;100.00
43436;BME280;36399;51.444;-2.018;2022-08-05T02:09:11;101005.84;;;12.59;100.00
43436;BME280;36399;51.444;-2.018;2022-08-05T02:11:46;101008.56;;;12.63;100.00
43436;BME280;36399;51.444;-2.018;2022-08-05T02:14:16;101012.97;;;12.64;100.00
43436;BME280;36399;51.444;-2.018;2022-08-05T02:16:49;101009.47;;;12.66;100.00
43436;BME280;36399;51.444;-2.018;2022-08-05T02:19:38;101009.41;;;12.62;100.00
43436;BME280;36399;51.444;-2.018;2022-08-05T02:22:21;101003.22;;;12.59;100.00
43436;BME280;36399;51.444;-2.018;2022-08-05T02:24:52;101002.34;;;12.58;100.00
43436;BME280;36399;51.444;-2.018;2022-08-05T02:27:22;100997.88;;;12.53;100.00
43436;BME280;36399;51.444;-2.018;2022-08-05T02:29:49;101004.69;;;12.39;100.00
43436;BME280;36399;51.444;-2.018;2022-08-05T02:32:19;100998.31;;;12.23;100.00
43436;BME280;36399;51.444;-2.018;2022-08-05T02:34:46;101007.78;;;12.10;100.00
43436;BME280;36399;51.444;-2.018;2022-08-05T02:37:13;100997.09;;;11.99;100.00
43436;BME280;36399;51.444;-2.018;2022-08-05T02:39:39;100999.59;;;11.93;100.00
43436;BME280;36399;51.444;-2.018;2022-08-05T02:42:07;100989.66;;;11.77;100.00
43436;BME280;36399;51.444;-2.018;2022-08-05T02:44:36;100988.59;;;11.66;100.00
43436;BME280;36399;51.444;-2.018;2022-08-05T02:47:07;100981.38;;;11.53;100.00
43436;BME280;36399;51.444;-2.018;2022-08-05T02:49:35;100986.50;;;11.45;100.00
43436;BME280;36399;51.444;-2.018;2022-08-05T02:52:04;100990.56;;;11.28;100.00
43436;BME280;36399;51.444;-2.018;2022-08-05T02:54:31;100983.31;;;11.15;100.00
43436;BME280;36399;51.444;-2.018;2022-08-05T02:56:59;100982.25;;;11.05;100.00
43436;BME280;36399;51.444;-2.018;2022-08-05T02:59:27;100989.09;;;10.97;100.00
43436;BME280;36399;51.444;-2.018;2022-08-05T03:01:55;100974.81;;;10.84;100.00
43436;BME280;36399;51.444;-2.018;2022-08-05T03:04:25;100983.41;;;10.75;100.00
43436;BME280;36399;51.444;-2.018;2022-08-05T03:06:52;100977.03;;;10.64;100.00
43436;BME280;36399;51.444;-2.018;2022-08-05T03:09:18;100981.31;;;10.59;100.00
43436;BME280;36399;51.444;-2.018;2022-08-05T03:11:45;100984.66;;;10.52;100.00
43436;BME280;36399;51.444;-2.018;2022-08-05T03:14:11;100974.09;;;10.49;100.00
43436;BME280;36399;51.444;-2.018;2022-08-05T03:16:37;100979.22;;;10.43;100.00
43436;BME280;36399;51.444;-2.018;2022-08-05T03:19:03;100982.53;;;10.36;100.00
43436;BME280;36399;51.444;-2.018;2022-08-05T03:21:30;100975.31;;;10.26;100.00
43436;BME280;36399;51.444;-2.018;2022-08-05T03:23:56;100981.22;;;10.17;100.00
43436;BME280;36399;51.444;-2.018;2022-08-05T03:26:23;100979.28;;;10.08;100.00
43436;BME280;36399;51.444;-2.018;2022-08-05T03:28:49;100971.06;;;9.93;100.00
43436;BME280;36399;51.444;-2.018;2022-08-05T03:31:15;100976.78;;;9.78;100.00
43436;BME280;36399;51.444;-2.018;2022-08-05T03:33:41;100975.53;;;9.63;100.00
43436;BME280;36399;51.444;-2.018;2022-08-05T03:36:07;100971.88;;;9.56;100.00
43436;BME280;36399;51.444;-2.018;2022-08-05T03:38:39;100979.56;;;9.48;100.00
43436;BME280;36399;51.444;-2.018;2022-08-05T03:41:05;100964.72;;;9.49;100.00
43436;BME280;36399;51.444;-2.018;2022-08-05T03:43:31;100977.53;;;9.37;100.00
43436;BME280;36399;51.444;-2.018;2022-08-05T03:45:57;100980.91;;;9.34;100.00
43436;BME280;36399;51.444;-2.018;2022-08-05T03:48:23;100972.91;;;9.28;100.00
43436;BME280;36399;51.444;-2.018;2022-08-05T03:51:19;100978.97;;;9.27;100.00
43436;BME280;36399;51.444;-2.018;2022-08-05T03:54:06;100985.97;;;9.27;100.00
43436;BME280;36399;51.444;-2.018;2022-08-05T03:56:39;100979.50;;;9.14;100.00
43436;BME280;36399;51.444;-2.018;2022-08-05T03:59:08;100986.97;;;8.99;100.00
43436;BME280;36399;51.444;-2.018;2022-08-05T04:01:38;100978.66;;;8.83;100.00
43436;BME280;36399;51.444;-2.018;2022-08-05T04:04:05;100976.72;;;8.76;100.00
43436;BME280;36399;51.444;-2.018;2022-08-05T04:06:32;100976.59;;;8.72;100.00
43436;BME280;36399;51.444;-2.018;2022-08-05T04:09:00;100978.13;;;8.65;100.00
43436;BME280;36399;51.444;-2.018;2022-08-05T04:11:27;100972.72;;;8.59;100.00
43436;BME280;36399;51.444;-2.018;2022-08-05T04:13:54;100967.16;;;8.47;100.00
43436;BME280;36399;51.444;-2.018;2022-08-05T04:16:20;100976.41;;;8.36;100.00
43436;BME280;36399;51.444;-2.018;2022-08-05T04:18:46;100982.06;;;8.22;100.00
43436;BME280;36399;51.444;-2.018;2022-08-05T04:21:12;100986.06;;;8.11;100.00
43436;BME280;36399;51.444;-2.018;2022-08-05T04:23:38;100984.84;;;8.00;100.00
43436;BME280;36399;51.444;-2.018;2022-08-05T04:26:04;100984.66;;;7.94;100.00
43436;BME280;36399;51.444;-2.018;2022-08-05T04:28:30;100986.25;;;7.89;100.00
43436;BME280;36399;51.444;-2.018;2022-08-05T04:30:57;100984.28;;;7.82;100.00
43436;BME280;36399;51.444;-2.018;2022-08-05T04:33:27;100983.25;;;7.78;100.00
43436;BME280;36399;51.444;-2.018;2022-08-05T04:35:53;100983.97;;;7.73;100.00
43436;BME280;36399;51.444;-2.018;2022-08-05T04:38:19;100986.38;;;7.67;100.00
43436;BME280;36399;51.444;-2.018;2022-08-05T04:40:45;100988.75;;;7.59;100.00
43436;BME280;36399;51.444;-2.018;2022-08-05T04:43:11;100997.41;;;7.58;100.00
43436;BME280;36399;51.444;-2.018;2022-08-05T04:45:37;101000.81;;;7.55;100.00
43436;BME280;36399;51.444;-2.018;2022-08-05T04:48:10;100997.16;;;7.50;100.00
43436;BME280;36399;51.444;-2.018;2022-08-05T04:50:44;100997.78;;;7.43;100.00
43436;BME280;36399;51.444;-2.018;2022-08-05T04:53:11;101007.31;;;7.41;100.00
43436;BME280;36399;51.444;-2.018;2022-08-05T04:55:38;101015.97;;;7.40;100.00
43436;BME280;36399;51.444;-2.018;2022-08-05T04:58:08;101013.22;;;7.36;100.00
43436;BME280;36399;51.444;-2.018;2022-08-05T05:00:36;101021.19;;;7.40;100.00
43436;BME280;36399;51.444;-2.018;2022-08-05T05:03:03;101018.63;;;7.42;100.00
43436;BME280;36399;51.444;-2.018;2022-08-05T05:05:29;101027.25;;;7.39;100.00
43436;BME280;36399;51.444;-2.018;2022-08-05T05:08:08;101029.19;;;7.45;100.00
43436;BME280;36399;51.444;-2.018;2022-08-05T05:10:40;101037.97;;;7.47;100.00
43436;BME280;36399;51.444;-2.018;2022-08-05T05:13:11;101047.53;;;7.46;100.00
43436;BME280;36399;51.444;-2.018;2022-08-05T05:15:38;101044.19;;;7.50;100.00
43436;BME280;36399;51.444;-2.018;2022-08-05T05:18:04;101049.50;;;7.53;100.00
43436;BME280;36399;51.444;-2.018;2022-08-05T05:20:31;101056.63;;;7.57;100.00
43436;BME280;36399;51.444;-2.018;2022-08-05T05:22:58;101066.34;;;7.62;100.00
43436;BME280;36399;51.444;-2.018;2022-08-05T05:25:25;101069.22;;;7.69;100.00
43436;BME280;36399;51.444;-2.018;2022-08-05T05:27:52;101073.00;;;7.79;100.00
43436;BME280;36399;51.444;-2.018;2022-08-05T05:30:21;101073.16;;;7.82;100.00
43436;BME280;36399;51.444;-2.018;2022-08-05T05:32:47;101079.63;;;7.93;100.00
43436;BME280;36399;51.444;-2.018;2022-08-05T05:35:13;101088.69;;;8.04;100.00
43436;BME280;36399;51.444;-2.018;2022-08-05T05:37:55;101091.72;;;8.16;100.00
43436;BME280;36399;51.444;-2.018;2022-08-05T05:40:23;101091.91;;;8.22;100.00
43436;BME280;36399;51.444;-2.018;2022-08-05T05:42:49;101105.22;;;8.30;100.00
43436;BME280;36399;51.444;-2.018;2022-08-05T05:45:16;101101.28;;;8.41;100.00
43436;BME280;36399;51.444;-2.018;2022-08-05T05:47:43;101094.44;;;8.45;100.00
43436;BME280;36399;51.444;-2.018;2022-08-05T05:50:14;101095.44;;;8.50;100.00
43436;BME280;36399;51.444;-2.018;2022-08-05T05:52:41;101103.63;;;8.61;100.00
43436;BME280;36399;51.444;-2.018;2022-08-05T05:55:10;101112.47;;;8.64;100.00
43436;BME280;36399;51.444;-2.018;2022-08-05T05:57:37;101109.19;;;8.71;100.00
43436;BME280;36399;51.444;-2.018;2022-08-05T06:00:13;101111.38;;;8.84;100.00
43436;BME280;36399;51.444;-2.018;2022-08-05T06:02:39;101118.69;;;8.96;100.00
43436;BME280;36399;51.444;-2.018;2022-08-05T06:05:07;101125.94;;;9.05;100.00
43436;BME280;36399;51.444;-2.018;2022-08-05T06:07:33;101120.13;;;9.15;100.00
43436;BME280;36399;51.444;-2.018;2022-08-05T06:09:59;101116.16;;;9.29;100.00
43436;BME280;36399;51.444;-2.018;2022-08-05T06:12:25;101117.94;;;9.30;100.00
43436;BME280;36399;51.444;-2.018;2022-08-05T06:14:51;101124.28;;;9.38;100.00
43436;BME280;36399;51.444;-2.018;2022-08-05T06:17:17;101128.88;;;9.45;100.00
43436;BME280;36399;51.444;-2.018;2022-08-05T06:19:43;101129.19;;;9.58;100.00
43436;BME280;36399;51.444;-2.018;2022-08-05T06:22:10;101132.88;;;9.64;100.00
43436;BME280;36399;51.444;-2.018;2022-08-05T06:24:41;101138.41;;;9.75;100.00
43436;BME280;36399;51.444;-2.018;2022-08-05T06:27:07;101133.41;;;9.84;100.00
43436;BME280;36399;51.444;-2.018;2022-08-05T06:29:33;101131.97;;;9.95;100.00
43436;BME280;36399;51.444;-2.018;2022-08-05T06:32:01;101134.81;;;10.04;100.00
43436;BME280;36399;51.444;-2.018;2022-08-05T06:34:29;101133.44;;;10.19;100.00
43436;BME280;36399;51.444;-2.018;2022-08-05T06:36:57;101137.31;;;10.33;100.00
43436;BME280;36399;51.444;-2.018;2022-08-05T06:39:24;101133.31;;;10.47;100.00
43436;BME280;36399;51.444;-2.018;2022-08-05T06:41:50;101132.03;;;10.67;100.00
43436;BME280;36399;51.444;-2.018;2022-08-05T06:44:19;101130.31;;;10.69;100.00
43436;BME280;36399;51.444;-2.018;2022-08-05T06:46:45;101132.31;;;10.80;100.00
43436;BME280;36399;51.444;-2.018;2022-08-05T06:49:11;101133.59;;;10.97;100.00
43436;BME280;36399;51.444;-2.018;2022-08-05T06:51:37;101134.56;;;11.02;100.00
43436;BME280;36399;51.444;-2.018;2022-08-05T06:54:03;101136.66;;;11.18;100.00
43436;BME280;36399;51.444;-2.018;2022-08-05T06:56:30;101135.09;;;11.26;100.00
43436;BME280;36399;51.444;-2.018;2022-08-05T06:58:56;101139.09;;;11.50;100.00
43436;BME280;36399;51.444;-2.018;2022-08-05T07:01:22;101133.94;;;11.56;100.00
43436;BME280;36399;51.444;-2.018;2022-08-05T07:03:48;101141.28;;;11.74;100.00
43436;BME280;36399;51.444;-2.018;2022-08-05T07:06:15;101136.22;;;11.83;100.00
43436;BME280;36399;51.444;-2.018;2022-08-05T07:08:42;101151.28;;;11.90;100.00
43436;BME280;36399;51.444;-2.018;2022-08-05T07:11:08;101142.69;;;11.98;100.00
43436;BME280;36399;51.444;-2.018;2022-08-05T07:13:34;101150.91;;;12.17;100.00
43436;BME280;36399;51.444;-2.018;2022-08-05T07:16:18;101154.59;;;12.28;100.00
43436;BME280;36399;51.444;-2.018;2022-08-05T07:19:03;101153.97;;;12.44;100.00
43436;BME280;36399;51.444;-2.018;2022-08-05T07:21:30;101156.06;;;12.63;100.00
43436;BME280;36399;51.444;-2.018;2022-08-05T07:23:57;101165.91;;;12.77;100.00
43436;BME280;36399;51.444;-2.018;2022-08-05T07:26:23;101174.78;;;12.82;100.00
43436;BME280;36399;51.444;-2.018;2022-08-05T07:28:49;101167.94;;;12.94;100.00
43436;BME280;36399;51.444;-2.018;2022-08-05T07:31:18;101171.69;;;13.10;100.00
43436;BME280;36399;51.444;-2.018;2022-08-05T07:33:44;101171.03;;;13.23;100.00
43436;BME280;36399;51.444;-2.018;2022-08-05T07:36:10;101170.16;;;13.24;100.00
43436;BME280;36399;51.444;-2.018;2022-08-05T07:38:36;101175.53;;;13.34;100.00
43436;BME280;36399;51.444;-2.018;2022-08-05T07:41:08;101168.63;;;13.42;100.00
43436;BME280;36399;51.444;-2.018;2022-08-05T07:43:34;101180.22;;;13.53;100.00
43436;BME280;36399;51.444;-2.018;2022-08-05T07:46:04;101182.91;;;13.59;100.00
43436;BME280;36399;51.444;-2.018;2022-08-05T07:48:29;101188.25;;;13.65;100.00
43436;BME280;36399;51.444;-2.018;2022-08-05T07:50:56;101184.88;;;13.75;100.00
43436;BME280;36399;51.444;-2.018;2022-08-05T07:53:22;101184.88;;;13.75;100.00
43436;BME280;36399;51.444;-2.018;2022-08-05T07:55:48;101184.97;;;13.84;100.00
43436;BME280;36399;51.444;-2.018;2022-08-05T07:58:13;101190.34;;;13.94;100.00
43436;BME280;36399;51.444;-2.018;2022-08-05T08:00:42;101183.50;;;14.11;100.00
43436;BME280;36399;51.444;-2.018;2022-08-05T08:03:09;101203.06;;;14.31;100.00
43436;BME280;36399;51.444;-2.018;2022-08-05T08:05:40;101190.00;;;14.46;100.00
43436;BME280;36399;51.444;-2.018;2022-08-05T08:08:09;101199.91;;;14.69;100.00
43436;BME280;36399;51.444;-2.018;2022-08-05T08:10:35;101215.81;;;14.75;100.00
43436;BME280;36399;51.444;-2.018;2022-08-05T08:13:01;101211.47;;;14.84;100.00
43436;BME280;36399;51.444;-2.018;2022-08-05T08:15:27;101218.59;;;14.96;100.00
43436;BME280;36399;51.444;-2.018;2022-08-05T08:17:53;101228.34;;;15.06;100.00
43436;BME280;36399;51.444;-2.018;2022-08-05T08:20:23;101242.59;;;15.21;100.00
43436;BME280;36399;51.444;-2.018;2022-08-05T08:22:54;101242.63;;;15.30;100.00
43436;BME280;36399;51.444;-2.018;2022-08-05T08:25:20;101252.41;;;15.43;100.00
43436;BME280;36399;51.444;-2.018;2022-08-05T08:27:49;101245.41;;;15.53;100.00
43436;BME280;36399;51.444;-2.018;2022-08-05T08:30:16;101256.09;;;15.65;100.00
43436;BME280;36399;51.444;-2.018;2022-08-05T08:32:42;101252.63;;;15.76;100.00
43436;BME280;36399;51.444;-2.018;2022-08-05T08:35:08;101266.75;;;15.78;100.00
43436;BME280;36399;51.444;-2.018;2022-08-05T08:37:34;101265.91;;;15.86;100.00
43436;BME280;36399;51.444;-2.018;2022-08-05T08:40:00;101275.63;;;15.94;100.00
43436;BME280;36399;51.444;-2.018;2022-08-05T08:42:27;101286.25;;;15.99;100.00
43436;BME280;36399;51.444;-2.018;2022-08-05T08:44:54;101276.53;;;15.95;100.00
43436;BME280;36399;51.444;-2.018;2022-08-05T08:47:24;101279.19;;;15.99;100.00
43436;BME280;36399;51.444;-2.018;2022-08-05T08:49:52;101285.41;;;16.12;100.00
43436;BME280;36399;51.444;-2.018;2022-08-05T08:52:24;101283.72;;;16.38;100.00
43436;BME280;36399;51.444;-2.018;2022-08-05T08:54:52;101297.00;;;16.46;100.00
43436;BME280;36399;51.444;-2.018;2022-08-05T08:57:18;101302.31;;;16.52;100.00
43436;BME280;36399;51.444;-2.018;2022-08-05T08:59:45;101298.75;;;16.44;100.00
43436;BME280;36399;51.444;-2.018;2022-08-05T09:02:11;101338.50;;;16.39;100.00
43436;BME280;36399;51.444;-2.018;2022-08-05T09:04:38;101352.66;;;16.54;100.00
43436;BME280;36399;51.444;-2.018;2022-08-05T09:07:07;101352.69;;;16.57;100.00
43436;BME280;36399;51.444;-2.018;2022-08-05T09:09:34;101355.31;;;16.57;100.00
43436;BME280;36399;51.444;-2.018;2022-08-05T09:12:02;101356.31;;;16.68;100.00
43436;BME280;36399;51.444;-2.018;2022-08-05T09:14:30;101351.03;;;16.89;100.00
43436;BME280;36399;51.444;-2.018;2022-08-05T09:16:58;101345.72;;;17.01;100.00
43436;BME280;36399;51.444;-2.018;2022-08-05T09:19:24;101353.69;;;17.14;100.00
43436;BME280;36399;51.444;-2.018;2022-08-05T09:21:50;101349.25;;;17.03;100.00
43436;BME280;36399;51.444;-2.018;2022-08-05T09:24:20;101362.50;;;16.96;100.00
43436;BME280;36399;51.444;-2.018;2022-08-05T09:26:50;101366.94;;;16.92;100.00
43436;BME280;36399;51.444;-2.018;2022-08-05T09:29:19;101363.41;;;17.02;100.00
43436;BME280;36399;51.444;-2.018;2022-08-05T09:32:02;101368.72;;;16.96;100.00
43436;BME280;36399;51.444;-2.018;2022-08-05T09:34:47;101370.47;;;17.00;100.00
43436;BME280;36399;51.444;-2.018;2022-08-05T09:37:22;101364.28;;;17.08;100.00
43436;BME280;36399;51.444;-2.018;2022-08-05T09:39:49;101366.09;;;17.33;100.00
43436;BME280;36399;51.444;-2.018;2022-08-05T09:42:17;101358.06;;;17.60;100.00
43436;BME280;36399;51.444;-2.018;2022-08-05T09:44:49;101366.97;;;17.72;100.00
43436;BME280;36399;51.444;-2.018;2022-08-05T09:47:20;101358.97;;;17.87;100.00
43436;BME280;36399;51.444;-2.018;2022-08-05T09:49:51;101372.16;;;18.08;100.00
43436;BME280;36399;51.444;-2.018;2022-08-05T09:52:24;101360.56;;;18.35;100.00
43436;BME280;36399;51.444;-2.018;2022-08-05T09:55:04;101374.72;;;18.37;100.00
43436;BME280;36399;51.444;-2.018;2022-08-05T09:57:42;101365.13;;;17.98;100.00
43436;BME280;36399;51.444;-2.018;2022-08-05T10:00:12;101368.69;;;17.91;100.00
43436;BME280;36399;51.444;-2.018;2022-08-05T10:02:41;101376.16;;;19.01;100.00
43436;BME280;36399;51.444;-2.018;2022-08-05T10:05:13;101370.94;;;19.91;100.00
43436;BME280;36399;51.444;-2.018;2022-08-05T10:07:56;101368.53;;;19.65;100.00
43436;BME280;36399;51.444;-2.018;2022-08-05T10:10:36;101379.22;;;19.62;100.00
43436;BME280;36399;51.444;-2.018;2022-08-05T10:13:03;101371.09;;;20.53;100.00
43436;BME280;36399;51.444;-2.018;2022-08-05T10:18:08;101365.56;;;22.65;100.00
43436;BME280;36399;51.444;-2.018;2022-08-05T10:23:10;101361.56;;;23.21;100.00
43436;BME280;36399;51.444;-2.018;2022-08-05T10:25:37;101364.50;;;23.48;97.71
43436;BME280;36399;51.444;-2.018;2022-08-05T10:28:07;101367.78;;;24.83;83.50
43436;BME280;36399;51.444;-2.018;2022-08-05T10:30:35;101368.53;;;24.88;73.42
43436;BME280;36399;51.444;-2.018;2022-08-05T10:33:02;101372.88;;;25.46;70.31
43436;BME280;36399;51.444;-2.018;2022-08-05T10:35:30;101372.72;;;24.69;73.45
43436;BME280;36399;51.444;-2.018;2022-08-05T10:37:56;101377.50;;;22.92;92.85
43436;BME280;36399;51.444;-2.018;2022-08-05T10:43:12;101370.63;;;22.39;100.00
43436;BME280;36399;51.444;-2.018;2022-08-05T10:45:38;101370.31;;;24.88;87.53
43436;BME280;36399;51.444;-2.018;2022-08-05T10:48:30;101378.38;;;24.60;78.52
43436;BME280;36399;51.444;-2.018;2022-08-05T10:50:58;101374.72;;;22.95;95.17
43436;BME280;36399;51.444;-2.018;2022-08-05T10:53:51;101379.16;;;22.56;100.00
43436;BME280;36399;51.444;-2.018;2022-08-05T10:56:24;101369.41;;;23.66;94.07
43436;BME280;36399;51.444;-2.018;2022-08-05T11:01:29;101381.53;;;22.70;96.61
43436;BME280;36399;51.444;-2.018;2022-08-05T11:04:20;101393.84;;;22.35;100.00
43436;BME280;36399;51.444;-2.018;2022-08-05T11:09:42;101382.25;;;23.52;86.16
43436;BME280;36399;51.444;-2.018;2022-08-05T11:15:30;101373.63;;;25.25;73.34
43436;BME280;36399;51.444;-2.018;2022-08-05T11:18:29;101379.09;;;26.25;67.87
43436;BME280;36399;51.444;-2.018;2022-08-05T11:20:55;101397.06;;;24.01;89.18
43436;BME280;36399;51.444;-2.018;2022-08-05T11:26:07;101390.44;;;23.46;97.92
43436;BME280;36399;51.444;-2.018;2022-08-05T11:33:36;101395.78;;;23.47;90.94
43436;BME280;36399;51.444;-2.018;2022-08-05T11:36:09;101387.41;;;23.24;91.90
43436;BME280;36399;51.444;-2.018;2022-08-05T11:41:13;101397.34;;;22.82;97.73
43436;BME280;36399;51.444;-2.018;2022-08-05T11:44:03;101397.59;;;24.13;80.22
43436;BME280;36399;51.444;-2.018;2022-08-05T11:49:03;101404.06;;;24.96;69.82
43436;BME280;36399;51.444;-2.018;2022-08-05T11:51:29;101392.00;;;24.53;69.67
43436;BME280;36399;51.444;-2.018;2022-08-05T11:53:56;101405.56;;;22.71;80.44
43436;BME280;36399;51.444;-2.018;2022-08-05T11:56:22;101416.53;;;22.16;87.13
43436;BME280;36399;51.444;-2.018;2022-08-05T11:58:50;101404.53;;;21.90;93.92
43436;BME280;36399;51.444;-2.018;2022-08-05T12:01:21;101411.06;;;21.74;100.00
43436;BME280;36399;51.444;-2.018;2022-08-05T12:03:53;101396.59;;;22.32;84.87
43436;BME280;36399;51.444;-2.018;2022-08-05T12:06:25;101398.91;;;23.99;83.03
43436;BME280;36399;51.444;-2.018;2022-08-05T12:08:56;101404.66;;;25.62;62.02
43436;BME280;36399;51.444;-2.018;2022-08-05T12:11:28;101412.94;;;25.28;60.55
43436;BME280;36399;51.444;-2.018;2022-08-05T12:14:04;101402.06;;;25.59;60.29
43436;BME280;36399;51.444;-2.018;2022-08-05T12:16:38;101403.84;;;24.14;66.18
43436;BME280;36399;51.444;-2.018;2022-08-05T12:19:06;101420.81;;;23.09;76.13
43436;BME280;36399;51.444;-2.018;2022-08-05T12:21:35;101404.38;;;23.24;76.79
43436;BME280;36399;51.444;-2.018;2022-08-05T12:24:08;101411.06;;;23.44;77.43
43436;BME280;36399;51.444;-2.018;2022-08-05T12:26:37;101421.38;;;22.42;76.90
43436;BME280;36399;51.444;-2.018;2022-08-05T12:31:38;101409.72;;;21.99;86.83
43436;BME280;36399;51.444;-2.018;2022-08-05T12:34:06;101417.72;;;23.63;75.62
43436;BME280;36399;51.444;-2.018;2022-08-05T12:36:34;101418.38;;;24.38;73.29
43436;BME280;36399;51.444;-2.018;2022-08-05T12:39:05;101413.72;;;25.05;68.18
43436;BME280;36399;51.444;-2.018;2022-08-05T12:41:34;101413.88;;;24.97;65.80
43436;BME280;36399;51.444;-2.018;2022-08-05T12:44:06;101425.31;;;24.45;67.93
43436;BME280;36399;51.444;-2.018;2022-08-05T12:46:33;101424.53;;;24.41;62.57
43436;BME280;36399;51.444;-2.018;2022-08-05T12:49:01;101423.06;;;25.20;64.11
43436;BME280;36399;51.444;-2.018;2022-08-05T12:51:30;101417.69;;;26.49;55.33
43436;BME280;36399;51.444;-2.018;2022-08-05T12:53:59;101415.25;;;26.66;60.52
43436;BME280;36399;51.444;-2.018;2022-08-05T12:56:28;101413.59;;;27.09;53.48
43436;BME280;36399;51.444;-2.018;2022-08-05T12:59:14;101415.22;;;25.93;61.12
43436;BME280;36399;51.444;-2.018;2022-08-05T13:01:42;101425.34;;;24.74;67.92
43436;BME280;36399;51.444;-2.018;2022-08-05T13:04:08;101422.78;;;24.40;66.92
43436;BME280;36399;51.444;-2.018;2022-08-05T13:06:43;101427.63;;;25.17;61.09
43436;BME280;36399;51.444;-2.018;2022-08-05T13:09:11;101424.53;;;26.09;58.09
43436;BME280;36399;51.444;-2.018;2022-08-05T13:11:42;101426.84;;;25.68;48.84
43436;BME280;36399;51.444;-2.018;2022-08-05T13:19:14;101433.53;;;23.37;66.42
43436;BME280;36399;51.444;-2.018;2022-08-05T13:21:41;101445.50;;;22.40;84.01
43436;BME280;36399;51.444;-2.018;2022-08-05T13:24:07;101443.13;;;21.74;99.26